createdAt,value
2022-07-26T00:00:00.395Z,13.76
2022-07-26T00:01:00.504Z,13.71
2022-07-26T00:02:00.347Z,13.74
2022-07-26T00:03:00.498Z,13.71
2022-07-26T00:04:00.439Z,13.76
2022-07-26T00:05:00.415Z,13.79
2022-07-26T00:06:00.469Z,13.63
2022-07-26T00:07:00.514Z,13.71
2022-07-26T00:08:00.458Z,13.76
2022-07-26T00:09:00.958Z,13.71
2022-07-26T00:10:00.242Z,13.79
2022-07-26T00:11:00.255Z,13.79
2022-07-26T00:12:00.218Z,13.81
2022-07-26T00:13:00.209Z,13.82
2022-07-26T00:14:00.216Z,13.84
2022-07-26T00:15:00.187Z,13.86
2022-07-26T00:16:00.244Z,13.89
2022-07-26T00:17:00.277Z,13.94
2022-07-26T00:18:00.226Z,13.84
2022-07-26T00:19:00.212Z,13.95
2022-07-26T00:20:00.243Z,13.86
2022-07-26T00:21:00.250Z,13.99
2022-07-26T00:22:00.206Z,14.02
2022-07-26T00:23:00.184Z,13.95
2022-07-26T00:24:03.280Z,14
2022-07-26T00:25:00.299Z,14.05
2022-07-26T00:26:00.184Z,14
2022-07-26T00:27:00.200Z,14.1
2022-07-26T00:28:00.200Z,14.08
2022-07-26T00:29:00.181Z,14.11
2022-07-26T00:30:00.212Z,14.13
2022-07-26T00:31:00.359Z,14.22
2022-07-26T00:32:00.323Z,14.27
2022-07-26T00:33:00.205Z,14.3
2022-07-26T00:34:00.209Z,14.23
2022-07-26T00:35:00.189Z,14.3
2022-07-26T00:36:00.222Z,14.39
2022-07-26T00:37:00.186Z,14.44
2022-07-26T00:38:00.202Z,14.46
2022-07-26T00:39:00.234Z,14.48
2022-07-26T00:40:00.220Z,14.47
2022-07-26T00:41:00.200Z,14.5
2022-07-26T00:42:00.212Z,14.59
2022-07-26T00:43:00.202Z,14.61
2022-07-26T00:44:00.308Z,14.73
2022-07-26T00:45:00.250Z,14.64
2022-07-26T00:46:00.336Z,14.7
2022-07-26T00:47:00.192Z,14.73
2022-07-26T00:48:00.187Z,14.72
2022-07-26T00:49:00.329Z,14.75
2022-07-26T00:50:00.206Z,14.81
2022-07-26T00:51:00.207Z,14.8
2022-07-26T00:52:00.242Z,14.78
2022-07-26T00:53:00.235Z,14.9
2022-07-26T00:54:00.180Z,14.9
2022-07-26T00:55:00.195Z,14.93
2022-07-26T00:56:00.196Z,15.01
2022-07-26T00:57:00.187Z,14.93
2022-07-26T00:58:00.202Z,14.9
2022-07-26T00:59:00.257Z,14.92
2022-07-26T01:00:00.237Z,14.98
2022-07-26T01:01:00.293Z,14.98
2022-07-26T01:02:00.365Z,14.97
2022-07-26T01:03:00.182Z,14.93
2022-07-26T01:04:00.210Z,14.97
2022-07-26T01:05:00.208Z,15.01
2022-07-26T01:06:00.237Z,15.04
2022-07-26T01:07:00.240Z,15.12
2022-07-26T01:08:00.183Z,15.08
2022-07-26T01:09:00.185Z,15.15
2022-07-26T01:10:00.230Z,15.11
2022-07-26T01:11:00.210Z,15.11
2022-07-26T01:12:00.200Z,15.14
2022-07-26T01:13:00.237Z,15.2
2022-07-26T01:14:00.241Z,15.22
2022-07-26T01:15:00.220Z,15.17
2022-07-26T01:16:00.257Z,15.22
2022-07-26T01:17:00.191Z,15.27
2022-07-26T01:18:00.207Z,15.21
2022-07-26T01:19:00.196Z,15.22
2022-07-26T01:20:00.226Z,15.34
2022-07-26T01:21:00.270Z,15.35
2022-07-26T01:22:00.216Z,15.41
2022-07-26T01:23:00.199Z,15.43
2022-07-26T01:24:00.308Z,15.48
2022-07-26T01:25:00.203Z,15.51
2022-07-26T01:26:00.377Z,15.47
2022-07-26T01:27:00.393Z,15.53
2022-07-26T01:28:00.473Z,15.54
2022-07-26T01:29:00.501Z,15.62
2022-07-26T01:30:00.634Z,15.67
2022-07-26T01:31:00.329Z,15.62
2022-07-26T01:32:00.219Z,15.7
2022-07-26T01:33:00.237Z,15.78
2022-07-26T01:34:00.258Z,15.75
2022-07-26T01:35:00.246Z,15.69
2022-07-26T01:36:00.236Z,15.72
2022-07-26T01:37:00.212Z,15.73
2022-07-26T01:38:00.200Z,15.83
2022-07-26T01:39:00.208Z,15.83
2022-07-26T01:40:00.214Z,15.73
2022-07-26T01:41:00.250Z,15.83
2022-07-26T01:42:00.256Z,15.73
2022-07-26T01:43:00.195Z,15.83
2022-07-26T01:44:00.206Z,15.83
2022-07-26T01:45:00.191Z,15.73
2022-07-26T01:46:00.275Z,15.73
2022-07-26T01:47:00.205Z,15.83
2022-07-26T01:48:00.210Z,15.83
2022-07-26T01:49:00.425Z,15.83
2022-07-26T01:50:00.224Z,15.83
2022-07-26T01:51:00.210Z,15.83
2022-07-26T01:52:00.216Z,15.83
2022-07-26T01:53:00.210Z,15.83
2022-07-26T01:54:00.210Z,15.83
2022-07-26T01:55:00.247Z,15.83
2022-07-26T01:56:00.245Z,15.83
2022-07-26T01:57:00.293Z,15.83
2022-07-26T01:58:00.376Z,15.92
2022-07-26T01:59:00.503Z,15.92
2022-07-26T02:00:00.467Z,15.92
2022-07-26T02:01:00.531Z,15.92
2022-07-26T02:02:00.579Z,15.89
2022-07-26T02:03:00.333Z,16.01
2022-07-26T02:04:00.192Z,15.92
2022-07-26T02:05:00.210Z,15.78
2022-07-26T02:06:00.210Z,15.87
2022-07-26T02:07:00.219Z,15.83
2022-07-26T02:08:00.215Z,15.73
2022-07-26T02:09:00.267Z,15.73
2022-07-26T02:10:00.247Z,15.73
2022-07-26T02:11:00.216Z,15.73
2022-07-26T02:12:00.205Z,15.73
2022-07-26T02:13:00.216Z,15.73
2022-07-26T02:14:00.203Z,15.64
2022-07-26T02:15:00.215Z,15.73
2022-07-26T02:16:00.336Z,15.64
2022-07-26T02:17:00.453Z,15.64
2022-07-26T02:18:00.218Z,15.64
2022-07-26T02:19:00.197Z,15.64
2022-07-26T02:20:00.209Z,15.55
2022-07-26T02:21:00.231Z,15.55
2022-07-26T02:22:00.220Z,15.55
2022-07-26T02:23:00.269Z,15.45
2022-07-26T02:24:00.245Z,15.45
2022-07-26T02:25:04.778Z,15.45
2022-07-26T02:26:00.203Z,15.45
2022-07-26T02:27:00.199Z,15.36
2022-07-26T02:28:00.205Z,15.36
2022-07-26T02:29:00.193Z,15.36
2022-07-26T02:30:00.232Z,15.27
2022-07-26T02:31:00.325Z,15.27
2022-07-26T02:32:00.222Z,15.27
2022-07-26T02:33:00.208Z,15.18
2022-07-26T02:34:00.239Z,15.18
2022-07-26T02:35:00.229Z,15.18
2022-07-26T02:36:00.237Z,15.09
2022-07-26T02:37:00.258Z,15.18
2022-07-26T02:38:00.262Z,15.09
2022-07-26T02:39:00.201Z,15.09
2022-07-26T02:40:00.208Z,15.09
2022-07-26T02:41:00.211Z,15.09
2022-07-26T02:42:00.207Z,15
2022-07-26T02:43:00.220Z,15
2022-07-26T02:44:00.261Z,15
2022-07-26T02:45:00.263Z,15
2022-07-26T02:46:03.731Z,15
2022-07-26T02:47:00.344Z,15
2022-07-26T02:48:00.201Z,14.91
2022-07-26T02:49:00.310Z,14.91
2022-07-26T02:50:00.218Z,14.82
2022-07-26T02:51:00.312Z,14.82
2022-07-26T02:52:00.267Z,14.82
2022-07-26T02:53:00.208Z,14.82
2022-07-26T02:54:00.213Z,14.82
2022-07-26T02:55:00.216Z,14.82
2022-07-26T02:56:00.235Z,14.82
2022-07-26T02:57:00.210Z,14.82
2022-07-26T02:58:00.267Z,14.82
2022-07-26T02:59:00.251Z,14.82
2022-07-26T03:00:00.235Z,14.82
2022-07-26T03:01:00.225Z,14.82
2022-07-26T03:02:00.322Z,14.82
2022-07-26T03:03:00.337Z,14.73
2022-07-26T03:04:00.205Z,14.73
2022-07-26T03:05:00.258Z,14.82
2022-07-26T03:06:00.269Z,14.82
2022-07-26T03:07:00.200Z,14.82
2022-07-26T03:08:00.215Z,14.82
2022-07-26T03:09:00.216Z,14.82
2022-07-26T03:10:00.215Z,14.82
2022-07-26T03:11:00.230Z,14.82
2022-07-26T03:12:00.347Z,14.82
2022-07-26T03:13:00.443Z,14.73
2022-07-26T03:14:00.370Z,14.82
2022-07-26T03:15:00.241Z,14.82
2022-07-26T03:16:00.341Z,14.82
2022-07-26T03:17:00.214Z,14.82
2022-07-26T03:18:00.196Z,14.82
2022-07-26T03:19:00.255Z,14.82
2022-07-26T03:20:00.292Z,14.82
2022-07-26T03:21:00.229Z,14.91
2022-07-26T03:22:00.206Z,14.91
2022-07-26T03:23:00.315Z,15
2022-07-26T03:24:00.239Z,15
2022-07-26T03:25:00.221Z,15
2022-07-26T03:26:00.276Z,15
2022-07-26T03:27:00.286Z,15
2022-07-26T03:28:00.213Z,15
2022-07-26T03:29:00.215Z,15.09
2022-07-26T03:30:00.271Z,15.09
2022-07-26T03:31:00.313Z,15
2022-07-26T03:32:00.239Z,15
2022-07-26T03:33:00.271Z,15
2022-07-26T03:34:03.255Z,15
2022-07-26T03:35:00.257Z,15.09
2022-07-26T03:36:00.226Z,15.09
2022-07-26T03:37:00.231Z,15.09
2022-07-26T03:38:00.311Z,15.09
2022-07-26T03:39:00.233Z,15.18
2022-07-26T03:40:00.295Z,15.18
2022-07-26T03:41:00.251Z,15.18
2022-07-26T03:42:00.219Z,15.18
2022-07-26T03:43:00.337Z,15.18
2022-07-26T03:44:00.326Z,15.18
2022-07-26T03:45:00.302Z,15.27
2022-07-26T03:46:00.369Z,15.18
2022-07-26T03:47:00.431Z,15.27
2022-07-26T03:48:00.248Z,15.27
2022-07-26T03:49:00.312Z,15.36
2022-07-26T03:50:00.221Z,15.36
2022-07-26T03:51:00.294Z,15.27
2022-07-26T03:52:00.226Z,15.27
2022-07-26T03:53:00.215Z,15.36
2022-07-26T03:54:00.290Z,15.36
2022-07-26T03:55:00.278Z,15.27
2022-07-26T03:56:00.313Z,15.36
2022-07-26T03:57:00.323Z,15.36
2022-07-26T03:58:00.330Z,15.36
2022-07-26T03:59:00.317Z,15.36
2022-07-26T04:00:00.225Z,15.36
2022-07-26T04:01:00.420Z,15.36
2022-07-26T04:02:00.516Z,15.36
2022-07-26T04:03:00.320Z,15.36
2022-07-26T04:04:00.215Z,15.36
2022-07-26T04:05:00.294Z,15.36
2022-07-26T04:06:00.248Z,15.36
2022-07-26T04:07:03.265Z,15.27
2022-07-26T04:08:00.417Z,15.27
2022-07-26T04:09:00.287Z,15.27
2022-07-26T04:10:00.277Z,15.27
2022-07-26T04:11:00.307Z,15.36
2022-07-26T04:12:00.299Z,15.36
2022-07-26T04:13:00.296Z,15.45
2022-07-26T04:14:00.213Z,15.45
2022-07-26T04:15:00.265Z,15.45
2022-07-26T04:16:00.250Z,15.45
2022-07-26T04:17:00.273Z,15.36
2022-07-26T04:18:00.221Z,15.36
2022-07-26T04:19:00.232Z,15.45
2022-07-26T04:20:00.236Z,15.45
2022-07-26T04:21:00.291Z,15.45
2022-07-26T04:22:00.301Z,15.55
2022-07-26T04:23:00.269Z,15.55
2022-07-26T04:24:00.231Z,15.55
2022-07-26T04:25:00.311Z,15.64
2022-07-26T04:26:00.294Z,15.64
2022-07-26T04:27:00.299Z,15.64
2022-07-26T04:28:00.303Z,15.64
2022-07-26T04:29:00.309Z,15.55
2022-07-26T04:30:00.268Z,15.55
2022-07-26T04:31:00.334Z,15.55
2022-07-26T04:32:00.223Z,15.45
2022-07-26T04:33:00.330Z,15.55
2022-07-26T04:34:00.239Z,15.55
2022-07-26T04:35:00.243Z,15.55
2022-07-26T04:36:00.345Z,15.55
2022-07-26T04:37:00.267Z,15.45
2022-07-26T04:38:00.269Z,15.45
2022-07-26T04:39:00.268Z,15.36
2022-07-26T04:40:00.238Z,15.36
2022-07-26T04:41:00.271Z,15.36
2022-07-26T04:42:00.218Z,15.36
2022-07-26T04:43:00.283Z,15.36
2022-07-26T04:44:00.261Z,15.36
2022-07-26T04:45:04.376Z,15.36
2022-07-26T04:46:00.372Z,15.45
2022-07-26T04:47:00.316Z,15.36
2022-07-26T04:48:00.220Z,15.27
2022-07-26T04:49:00.412Z,15.27
2022-07-26T04:50:00.271Z,15.27
2022-07-26T04:51:00.259Z,15.18
2022-07-26T04:52:00.248Z,15.18
2022-07-26T04:53:00.262Z,15.27
2022-07-26T04:54:00.225Z,15.27
2022-07-26T04:55:00.247Z,15.27
2022-07-26T04:56:00.214Z,15.36
2022-07-26T04:57:00.273Z,15.36
2022-07-26T04:58:00.296Z,15.36
2022-07-26T04:59:00.305Z,15.36
2022-07-26T05:00:20.254Z,15.36
2022-07-26T05:01:10.023Z,15.36
2022-07-26T05:02:00.431Z,15.36
2022-07-26T05:03:00.323Z,15.36
2022-07-26T05:04:00.259Z,15.36
2022-07-26T05:05:00.283Z,15.36
2022-07-26T05:06:00.439Z,15.27
2022-07-26T05:07:00.502Z,15.27
2022-07-26T05:08:00.627Z,15.27
2022-07-26T05:09:00.620Z,15.36
2022-07-26T05:10:00.249Z,15.36
2022-07-26T05:11:00.602Z,15.36
2022-07-26T05:12:00.722Z,15.36
2022-07-26T05:13:00.220Z,15.36
2022-07-26T05:14:00.235Z,15.36
2022-07-26T05:15:00.307Z,15.36
2022-07-26T05:16:00.409Z,15.36
2022-07-26T05:17:00.358Z,15.45
2022-07-26T05:18:00.271Z,15.55
2022-07-26T05:19:00.265Z,15.55
2022-07-26T05:20:03.290Z,15.55
2022-07-26T05:21:00.241Z,15.64
2022-07-26T05:22:00.330Z,15.55
2022-07-26T05:23:00.226Z,15.55
2022-07-26T05:24:00.229Z,15.55
2022-07-26T05:25:00.290Z,15.55
2022-07-26T05:26:00.282Z,15.64
2022-07-26T05:27:00.284Z,15.64
2022-07-26T05:28:00.217Z,15.73
2022-07-26T05:29:00.384Z,15.73
2022-07-26T05:30:00.287Z,15.73
2022-07-26T05:31:00.386Z,15.73
2022-07-26T05:32:00.278Z,15.64
2022-07-26T05:33:00.255Z,15.64
2022-07-26T05:34:00.322Z,15.64
2022-07-26T05:35:00.325Z,15.55
2022-07-26T05:36:00.343Z,15.55
2022-07-26T05:37:00.244Z,15.45
2022-07-26T05:38:00.221Z,15.45
2022-07-26T05:39:00.287Z,15.55
2022-07-26T05:40:00.454Z,15.55
2022-07-26T05:41:00.258Z,15.55
2022-07-26T05:42:00.257Z,15.45
2022-07-26T05:43:00.233Z,15.45
2022-07-26T05:44:00.229Z,15.45
2022-07-26T05:45:00.251Z,15.45
2022-07-26T05:46:00.959Z,15.45
2022-07-26T05:47:00.302Z,15.45
2022-07-26T05:48:00.262Z,15.45
2022-07-26T05:49:00.381Z,15.45
2022-07-26T05:50:00.415Z,15.45
2022-07-26T05:51:00.231Z,15.36
2022-07-26T05:52:01.466Z,15.36
2022-07-26T05:53:00.229Z,15.36
2022-07-26T05:54:00.284Z,15.36
2022-07-26T05:55:00.247Z,15.36
2022-07-26T05:56:00.251Z,15.45
2022-07-26T05:57:00.271Z,15.45
2022-07-26T05:58:00.235Z,15.36
2022-07-26T05:59:00.266Z,15.36
2022-07-26T06:00:00.520Z,15.36
2022-07-26T06:01:00.391Z,15.36
2022-07-26T06:02:00.342Z,15.27
2022-07-26T06:03:00.343Z,15.27
2022-07-26T06:04:00.294Z,15.27
2022-07-26T06:05:00.233Z,15.27
2022-07-26T06:06:00.312Z,15.27
2022-07-26T06:07:00.327Z,15.36
2022-07-26T06:08:00.268Z,15.36
2022-07-26T06:09:00.238Z,15.45
2022-07-26T06:10:00.231Z,15.36
2022-07-26T06:11:00.385Z,15.45
2022-07-26T06:12:00.259Z,15.36
2022-07-26T06:13:00.234Z,15.36
2022-07-26T06:14:00.468Z,15.45
2022-07-26T06:15:00.271Z,15.45
2022-07-26T06:16:00.227Z,15.45
2022-07-26T06:17:00.351Z,15.55
2022-07-26T06:18:00.256Z,15.64
2022-07-26T06:19:00.223Z,15.64
2022-07-26T06:20:00.226Z,15.64
2022-07-26T06:21:02.227Z,15.64
2022-07-26T06:22:00.340Z,15.55
2022-07-26T06:23:00.312Z,15.45
2022-07-26T06:24:00.221Z,15.55
2022-07-26T06:25:00.340Z,15.55
2022-07-26T06:26:00.251Z,15.55
2022-07-26T06:27:04.667Z,15.64
2022-07-26T06:28:00.269Z,15.64
2022-07-26T06:29:00.275Z,15.55
2022-07-26T06:30:00.258Z,15.55
2022-07-26T06:31:00.388Z,15.55
2022-07-26T06:32:00.485Z,15.45
2022-07-26T06:33:00.255Z,15.36
2022-07-26T06:34:00.285Z,15.36
2022-07-26T06:35:00.399Z,15.36
2022-07-26T06:36:00.358Z,15.36
2022-07-26T06:37:00.330Z,15.45
2022-07-26T06:38:00.233Z,15.55
2022-07-26T06:39:00.320Z,15.64
2022-07-26T06:40:00.328Z,15.64
2022-07-26T06:41:00.267Z,15.73
2022-07-26T06:42:00.297Z,15.83
2022-07-26T06:43:04.330Z,15.92
2022-07-26T06:44:00.251Z,15.92
2022-07-26T06:45:00.272Z,15.92
2022-07-26T06:46:00.351Z,15.92
2022-07-26T06:47:00.292Z,15.92
2022-07-26T06:48:00.306Z,15.92
2022-07-26T06:49:00.440Z,15.92
2022-07-26T06:50:00.551Z,16.01
2022-07-26T06:51:00.323Z,16.01
2022-07-26T06:52:00.306Z,16.11
2022-07-26T06:53:00.227Z,16.11
2022-07-26T06:54:00.994Z,16.11
2022-07-26T06:55:00.231Z,16.01
2022-07-26T06:56:00.456Z,15.83
2022-07-26T06:57:00.278Z,15.64
2022-07-26T06:58:00.234Z,15.64
2022-07-26T06:59:00.341Z,15.45
2022-07-26T07:00:00.368Z,15.45
2022-07-26T07:01:00.369Z,15.36
2022-07-26T07:02:00.756Z,15.36
2022-07-26T07:03:00.372Z,15.36
2022-07-26T07:04:00.373Z,15.36
2022-07-26T07:05:00.436Z,15.36
2022-07-26T07:06:00.246Z,15.27
2022-07-26T07:07:00.223Z,15.27
2022-07-26T07:08:00.354Z,15.27
2022-07-26T07:09:00.235Z,15.27
2022-07-26T07:10:00.282Z,15.18
2022-07-26T07:11:00.351Z,15.27
2022-07-26T07:12:05.441Z,15.36
2022-07-26T07:13:00.237Z,15.36
2022-07-26T07:14:00.261Z,15.45
2022-07-26T07:15:00.239Z,15.55
2022-07-26T07:16:00.425Z,15.55
2022-07-26T07:17:00.379Z,15.64
2022-07-26T07:18:00.393Z,15.64
2022-07-26T07:19:00.268Z,15.55
2022-07-26T07:20:00.277Z,15.64
2022-07-26T07:21:00.267Z,15.73
2022-07-26T07:22:00.230Z,15.64
2022-07-26T07:23:00.232Z,15.73
2022-07-26T07:24:00.263Z,15.73
2022-07-26T07:25:00.297Z,15.73
2022-07-26T07:26:00.248Z,15.83
2022-07-26T07:27:00.321Z,15.92
2022-07-26T07:28:00.561Z,15.92
2022-07-26T07:29:00.245Z,16.01
2022-07-26T07:30:00.333Z,16.11
2022-07-26T07:31:00.655Z,16.01
2022-07-26T07:32:00.702Z,16.11
2022-07-26T07:33:00.249Z,16.3
2022-07-26T07:34:00.237Z,16.3
2022-07-26T07:35:00.247Z,16.4
2022-07-26T07:36:00.241Z,16.4
2022-07-26T07:37:00.251Z,16.5
2022-07-26T07:38:00.399Z,16.59
2022-07-26T07:39:05.973Z,16.59
2022-07-26T07:40:00.304Z,16.5
2022-07-26T07:41:00.277Z,16.5
2022-07-26T07:42:00.253Z,16.5
2022-07-26T07:43:00.243Z,16.59
2022-07-26T07:44:00.235Z,16.59
2022-07-26T07:45:00.349Z,16.69
2022-07-26T07:46:00.283Z,16.79
2022-07-26T07:47:00.339Z,16.69
2022-07-26T07:48:00.238Z,16.59
2022-07-26T07:49:00.355Z,16.59
2022-07-26T07:50:00.269Z,16.5
2022-07-26T07:51:00.258Z,16.5
2022-07-26T07:52:00.381Z,16.5
2022-07-26T07:53:00.385Z,16.59
2022-07-26T07:54:05.181Z,16.4
2022-07-26T07:55:21.833Z,16.4
2022-07-26T07:56:00.295Z,16.4
2022-07-26T07:57:00.309Z,16.4
2022-07-26T07:58:00.323Z,16.4
2022-07-26T07:59:00.299Z,16.4
2022-07-26T08:00:00.289Z,16.5
2022-07-26T08:01:00.272Z,16.5
2022-07-26T08:02:00.347Z,16.5
2022-07-26T08:03:00.454Z,16.5
2022-07-26T08:04:00.465Z,16.4
2022-07-26T08:05:14.220Z,16.3
2022-07-26T08:06:00.409Z,16.11
2022-07-26T08:07:00.330Z,16.11
2022-07-26T08:08:00.253Z,16.21
2022-07-26T08:09:00.313Z,16.11
2022-07-26T08:10:00.345Z,16.11
2022-07-26T08:11:00.332Z,16.21
2022-07-26T08:12:00.257Z,16.3
2022-07-26T08:13:00.304Z,16.3
2022-07-26T08:14:00.348Z,16.5
2022-07-26T08:15:00.360Z,16.59
2022-07-26T08:16:00.869Z,16.79
2022-07-26T08:17:00.404Z,16.89
2022-07-26T08:18:00.269Z,16.99
2022-07-26T08:19:00.333Z,17.09
2022-07-26T08:20:00.836Z,17.29
2022-07-26T08:21:00.287Z,17.29
2022-07-26T08:22:00.304Z,17.39
2022-07-26T08:23:00.312Z,17.39
2022-07-26T08:24:00.233Z,17.29
2022-07-26T08:25:00.250Z,17.29
2022-07-26T08:26:04.741Z,17.09
2022-07-26T08:27:00.351Z,17.19
2022-07-26T08:28:03.462Z,17.29
2022-07-26T08:29:00.625Z,17.29
2022-07-26T08:30:00.257Z,17.39
2022-07-26T08:31:00.486Z,17.29
2022-07-26T08:32:00.337Z,17.29
2022-07-26T08:33:00.274Z,17.6
2022-07-26T08:34:00.381Z,17.7
2022-07-26T08:35:17.243Z,17.91
2022-07-26T08:36:00.261Z,18.01
2022-07-26T08:37:16.382Z,18.22
2022-07-26T08:38:00.238Z,18.22
2022-07-26T08:39:00.239Z,18.12
2022-07-26T08:40:00.382Z,18.22
2022-07-26T08:41:00.323Z,18.22
2022-07-26T08:42:00.398Z,18.22
2022-07-26T08:43:00.439Z,18.22
2022-07-26T08:44:00.461Z,18.33
2022-07-26T08:45:00.591Z,18.33
2022-07-26T08:46:00.246Z,18.22
2022-07-26T08:47:00.381Z,18.22
2022-07-26T08:48:17.211Z,18.22
2022-07-26T08:49:00.454Z,18.22
2022-07-26T08:50:00.277Z,18.43
2022-07-26T08:51:00.708Z,18.76
2022-07-26T08:52:00.271Z,18.87
2022-07-26T08:53:00.250Z,18.98
2022-07-26T08:54:05.305Z,19.12
2022-07-26T08:55:00.299Z,18.52
2022-07-26T08:56:07.868Z,18.75
2022-07-26T08:57:00.300Z,18.66
2022-07-26T08:58:00.256Z,18.87
2022-07-26T08:59:00.275Z,18.83
2022-07-26T09:00:00.298Z,18.57
2022-07-26T09:01:00.341Z,18.4
2022-07-26T09:02:00.336Z,18.29
2022-07-26T09:03:00.320Z,18.3
2022-07-26T09:04:00.369Z,18.07
2022-07-26T09:05:00.254Z,17.96
2022-07-26T09:06:00.280Z,18.27
2022-07-26T09:07:00.249Z,18.38
2022-07-26T09:08:00.349Z,18.07
2022-07-26T09:09:00.357Z,17.96
2022-07-26T09:10:00.400Z,17.83
2022-07-26T09:11:00.544Z,18.26
2022-07-26T09:12:00.396Z,17.89
2022-07-26T09:13:00.271Z,17.8
2022-07-26T09:14:00.290Z,17.67
2022-07-26T09:15:00.299Z,17.86
2022-07-26T09:16:00.330Z,17.91
2022-07-26T09:17:00.448Z,17.88
2022-07-26T09:18:00.252Z,17.72
2022-07-26T09:19:00.279Z,17.65
2022-07-26T09:20:00.307Z,17.97
2022-07-26T09:21:00.466Z,17.63
2022-07-26T09:22:00.341Z,17.33
2022-07-26T09:23:00.323Z,17.4
2022-07-26T09:24:00.301Z,17.57
2022-07-26T09:25:00.263Z,17.59
2022-07-26T09:26:00.259Z,18.12
2022-07-26T09:27:00.269Z,17.91
2022-07-26T09:28:00.245Z,17.8
2022-07-26T09:29:00.283Z,17.8
2022-07-26T09:30:00.326Z,17.7
2022-07-26T09:31:00.370Z,17.7
2022-07-26T09:32:00.287Z,17.6
2022-07-26T09:33:00.316Z,17.6
2022-07-26T09:34:00.254Z,17.8
2022-07-26T09:35:00.466Z,17.8
2022-07-26T09:36:00.267Z,18.12
2022-07-26T09:37:00.338Z,18.33
2022-07-26T09:38:00.296Z,18.54
2022-07-26T09:39:00.341Z,18.76
2022-07-26T09:40:00.368Z,18.72
2022-07-26T09:41:00.365Z,18.8
2022-07-26T09:42:26.318Z,18.52
2022-07-26T09:43:00.252Z,18.57
2022-07-26T09:44:00.306Z,18.3
2022-07-26T09:45:00.300Z,18.28
2022-07-26T09:46:00.249Z,18.06
2022-07-26T09:47:00.401Z,18.43
2022-07-26T09:48:00.303Z,18.33
2022-07-26T09:49:10.378Z,18.22
2022-07-26T09:50:00.346Z,18.22
2022-07-26T09:51:00.426Z,18.33
2022-07-26T09:52:00.331Z,18.33
2022-07-26T09:53:00.341Z,18.43
2022-07-26T09:54:00.258Z,18.18
2022-07-26T09:55:00.262Z,18.34
2022-07-26T09:56:00.254Z,18.2
2022-07-26T09:57:00.261Z,18.59
2022-07-26T09:58:00.320Z,18.5
2022-07-26T09:59:00.314Z,18.35
2022-07-26T10:00:00.283Z,17.86
2022-07-26T10:01:02.525Z,17.13
2022-07-26T10:02:00.403Z,17.25
2022-07-26T10:03:00.354Z,17.21
2022-07-26T10:04:00.310Z,17.23
2022-07-26T10:05:00.404Z,16.83
2022-07-26T10:06:00.299Z,17.07
2022-07-26T10:07:00.321Z,17.39
2022-07-26T10:08:00.260Z,16.76
2022-07-26T10:09:00.371Z,17.07
2022-07-26T10:10:00.309Z,16.49
2022-07-26T10:11:00.265Z,16.53
2022-07-26T10:12:00.365Z,16.79
2022-07-26T10:13:00.324Z,16.61
2022-07-26T10:14:00.313Z,16.63
2022-07-26T10:15:00.260Z,16.51
2022-07-26T10:16:00.364Z,16.69
2022-07-26T10:17:00.283Z,16.42
2022-07-26T10:18:00.300Z,16.55
2022-07-26T10:19:00.922Z,16.66
2022-07-26T10:20:00.505Z,16.66
2022-07-26T10:21:00.312Z,16.62
2022-07-26T10:22:00.255Z,16.76
2022-07-26T10:23:00.302Z,16.88
2022-07-26T10:24:00.260Z,17.05
2022-07-26T10:25:00.281Z,16.59
2022-07-26T10:26:00.539Z,16.64
2022-07-26T10:27:00.445Z,16.78
2022-07-26T10:28:00.270Z,16.63
2022-07-26T10:29:00.263Z,16.51
2022-07-26T10:30:00.388Z,16.5
2022-07-26T10:31:00.350Z,16.3
2022-07-26T10:32:00.391Z,16.13
2022-07-26T10:33:00.312Z,16.37
2022-07-26T10:34:00.330Z,16.51
2022-07-26T10:35:00.289Z,16.02
2022-07-26T10:36:00.267Z,16.47
2022-07-26T10:37:00.684Z,15.98
2022-07-26T10:38:00.319Z,15.89
2022-07-26T10:39:00.265Z,15.71
2022-07-26T10:40:00.325Z,15.72
2022-07-26T10:41:00.314Z,16.15
2022-07-26T10:42:00.358Z,15.82
2022-07-26T10:43:17.122Z,16.25
2022-07-26T10:44:00.363Z,15.61
2022-07-26T10:45:00.278Z,15.69
2022-07-26T10:46:00.348Z,15.7
2022-07-26T10:47:00.559Z,15.72
2022-07-26T10:48:00.306Z,15.7
2022-07-26T10:49:00.375Z,15.72
2022-07-26T10:50:01.535Z,15.46
2022-07-26T10:51:04.494Z,15.46
2022-07-26T10:52:00.280Z,15.62
2022-07-26T10:53:00.326Z,15.65
2022-07-26T10:54:00.317Z,15.75
2022-07-26T10:55:00.426Z,15.63
2022-07-26T10:56:00.262Z,15.58
2022-07-26T10:57:00.325Z,15.03
2022-07-26T10:58:00.344Z,15.37
2022-07-26T10:59:00.269Z,15.34
2022-07-26T11:00:00.289Z,15.66
2022-07-26T11:01:00.383Z,15.35
2022-07-26T11:02:00.399Z,15.29
2022-07-26T11:03:00.354Z,15.14
2022-07-26T11:04:00.265Z,15.18
2022-07-26T11:05:00.271Z,15.12
2022-07-26T11:06:00.259Z,15.51
2022-07-26T11:07:00.365Z,15.34
2022-07-26T11:08:00.339Z,15.49
2022-07-26T11:09:00.313Z,15.6
2022-07-26T11:10:00.308Z,15.79
2022-07-26T11:11:00.374Z,15.62
2022-07-26T11:12:00.425Z,15.58
2022-07-26T11:13:00.461Z,15.48
2022-07-26T11:14:00.371Z,15.87
2022-07-26T11:15:00.440Z,15.68
2022-07-26T11:16:00.418Z,15.28
2022-07-26T11:17:00.281Z,15.8
2022-07-26T11:18:00.358Z,15.57
2022-07-26T11:19:00.286Z,15.04
2022-07-26T11:20:00.281Z,14.84
2022-07-26T11:21:00.273Z,14.86
2022-07-26T11:22:00.450Z,14.66
2022-07-26T11:23:00.311Z,14.98
2022-07-26T11:24:00.271Z,15.11
2022-07-26T11:25:00.292Z,15.03
2022-07-26T11:26:02.335Z,15.13
2022-07-26T11:27:00.288Z,14.97
2022-07-26T11:28:00.292Z,14.97
2022-07-26T11:29:00.326Z,14.85
2022-07-26T11:30:00.393Z,15.02
2022-07-26T11:31:00.348Z,14.48
2022-07-26T11:32:14.398Z,14.52
2022-07-26T11:33:00.283Z,14.5
2022-07-26T11:34:00.271Z,14.35
2022-07-26T11:35:00.337Z,14.39
2022-07-26T11:36:00.321Z,14.26
2022-07-26T11:37:00.337Z,14.18
2022-07-26T11:38:09.536Z,14.22
2022-07-26T11:39:01.116Z,13.92
2022-07-26T11:40:00.327Z,14.39
2022-07-26T11:41:00.270Z,14.18
2022-07-26T11:42:00.285Z,14.04
2022-07-26T11:43:00.335Z,14.07
2022-07-26T11:44:02.383Z,13.76
2022-07-26T11:45:00.286Z,13.83
2022-07-26T11:46:00.359Z,13.83
2022-07-26T11:47:00.312Z,14.1
2022-07-26T11:48:00.286Z,13.78
2022-07-26T11:49:00.398Z,13.59
2022-07-26T11:50:13.968Z,13.81
2022-07-26T11:51:00.319Z,13.89
2022-07-26T11:52:00.289Z,13.68
2022-07-26T11:53:00.283Z,13.77
2022-07-26T11:54:00.294Z,13.87
2022-07-26T11:55:00.282Z,13.55
2022-07-26T11:56:00.275Z,13.9
2022-07-26T11:57:00.347Z,13.88
2022-07-26T11:58:00.329Z,13.77
2022-07-26T11:59:00.265Z,13.81
2022-07-26T12:00:00.809Z,13.87
2022-07-26T12:01:00.272Z,13.98
2022-07-26T12:02:00.278Z,13.89
2022-07-26T12:03:00.284Z,14.02
2022-07-26T12:04:00.521Z,13.3
2022-07-26T12:05:00.497Z,13.65
2022-07-26T12:06:00.277Z,13.86
2022-07-26T12:07:00.339Z,13.44
2022-07-26T12:08:00.312Z,13.37
2022-07-26T12:09:00.267Z,13.46
2022-07-26T12:10:00.265Z,13.25
2022-07-26T12:11:00.386Z,13.08
2022-07-26T12:12:00.339Z,12.88
2022-07-26T12:13:00.283Z,12.86
2022-07-26T12:14:00.289Z,13.29
2022-07-26T12:15:00.283Z,12.56
2022-07-26T12:16:00.351Z,12.92
2022-07-26T12:17:00.324Z,12.84
2022-07-26T12:18:00.334Z,12.89
2022-07-26T12:19:00.329Z,12.62
2022-07-26T12:20:00.274Z,12.48
2022-07-26T12:21:04.542Z,12.84
2022-07-26T12:22:00.270Z,12.86
2022-07-26T12:23:00.283Z,12.67
2022-07-26T12:24:00.293Z,12.6
2022-07-26T12:25:00.359Z,12.51
2022-07-26T12:26:00.368Z,12.28
2022-07-26T12:27:00.286Z,12.52
2022-07-26T12:28:00.468Z,12.75
2022-07-26T12:29:00.535Z,12.89
2022-07-26T12:30:00.618Z,13.21
2022-07-26T12:31:00.793Z,13.5
2022-07-26T12:32:00.657Z,13.07
2022-07-26T12:33:00.586Z,13
2022-07-26T12:34:00.300Z,13.31
2022-07-26T12:35:00.296Z,13.43
2022-07-26T12:36:00.311Z,13.53
2022-07-26T12:37:00.288Z,13.59
2022-07-26T12:38:00.274Z,13.59
2022-07-26T12:39:00.948Z,13.73
2022-07-26T12:40:00.331Z,14.11
2022-07-26T12:41:00.278Z,14.39
2022-07-26T12:42:00.299Z,16.13
2022-07-26T12:43:02.173Z,17.1
2022-07-26T12:44:00.281Z,16.59
2022-07-26T12:45:00.295Z,16.3
2022-07-26T12:46:00.409Z,16.11
2022-07-26T12:47:00.337Z,15.92
2022-07-26T12:48:00.293Z,15.83
2022-07-26T12:49:00.977Z,15.64
2022-07-26T12:50:00.288Z,15.36
2022-07-26T12:51:00.296Z,15.09
2022-07-26T12:52:00.284Z,14.91
2022-07-26T12:53:00.353Z,14.82
2022-07-26T12:54:00.366Z,14.73
2022-07-26T12:55:00.282Z,14.73
2022-07-26T12:56:00.291Z,14.65